sensor_id;sensor_type;location;lat;lon;timestamp;pressure;altitude;pressure_sealevel;temperature;humidity
64711;BME280;51139;45.626;6.850;2023-01-29T00:01:24;81753.13;;;-6.08;54.21
64711;BME280;51139;45.626;6.850;2023-01-29T00:03:50;81746.72;;;-6.30;55.43
64711;BME280;51139;45.626;6.850;2023-01-29T00:06:16;81746.63;;;-6.79;56.47
64711;BME280;51139;45.626;6.850;2023-01-29T00:08:41;81749.59;;;-6.54;56.25
64711;BME280;51139;45.626;6.850;2023-01-29T00:11:08;81752.97;;;-6.37;55.46
64711;BME280;51139;45.626;6.850;2023-01-29T00:13:34;81757.56;;;-6.14;54.53
64711;BME280;51139;45.626;6.850;2023-01-29T00:16:00;81757.38;;;-6.11;55.49
64711;BME280;51139;45.626;6.850;2023-01-29T00:18:26;81750.88;;;-6.38;55.63
64711;BME280;51139;45.626;6.850;2023-01-29T00:20:52;81741.84;;;-6.92;57.30
64711;BME280;51139;45.626;6.850;2023-01-29T00:23:18;81737.44;;;-7.18;58.10
64711;BME280;51139;45.626;6.850;2023-01-29T00:25:44;81736.81;;;-7.07;57.38
64711;BME280;51139;45.626;6.850;2023-01-29T00:28:09;81743.91;;;-6.64;57.32
64711;BME280;51139;45.626;6.850;2023-01-29T00:30:35;81741.84;;;-6.60;56.25
64711;BME280;51139;45.626;6.850;2023-01-29T00:33:01;81744.88;;;-6.62;56.36
64711;BME280;51139;45.626;6.850;2023-01-29T00:35:27;81737.63;;;-6.95;56.61
64711;BME280;51139;45.626;6.850;2023-01-29T00:37:55;81734.78;;;-7.29;57.67
64711;BME280;51139;45.626;6.850;2023-01-29T00:40:21;81734.03;;;-7.36;58.37
64711;BME280;51139;45.626;6.850;2023-01-29T00:42:47;81730.03;;;-7.37;58.30
64711;BME280;51139;45.626;6.850;2023-01-29T00:45:32;81735.13;;;-7.16;57.11
64711;BME280;51139;45.626;6.850;2023-01-29T00:47:57;81732.09;;;-6.45;55.21
64711;BME280;51139;45.626;6.850;2023-01-29T00:50:23;81728.19;;;-6.28;53.96
64711;BME280;51139;45.626;6.850;2023-01-29T00:52:48;81727.03;;;-6.65;54.71
64711;BME280;51139;45.626;6.850;2023-01-29T00:55:16;81734.13;;;-6.92;55.66
64711;BME280;51139;45.626;6.850;2023-01-29T00:57:41;81734.75;;;-6.71;55.29
64711;BME280;51139;45.626;6.850;2023-01-29T01:00:09;81736.00;;;-6.93;55.36
64711;BME280;51139;45.626;6.850;2023-01-29T01:02:36;81735.81;;;-7.15;56.61
64711;BME280;51139;45.626;6.850;2023-01-29T01:05:19;81739.84;;;-7.09;57.13
64711;BME280;51139;45.626;6.850;2023-01-29T01:07:56;81740.84;;;-7.00;57.04
64711;BME280;51139;45.626;6.850;2023-01-29T01:10:32;81737.88;;;-6.93;56.44
64711;BME280;51139;45.626;6.850;2023-01-29T01:13:05;81735.06;;;-7.22;57.24
64711;BME280;51139;45.626;6.850;2023-01-29T01:15:34;81743.59;;;-7.10;57.02
64711;BME280;51139;45.626;6.850;2023-01-29T01:18:00;81737.63;;;-6.95;56.02
64711;BME280;51139;45.626;6.850;2023-01-29T01:20:29;81743.91;;;-7.02;56.35
64711;BME280;51139;45.626;6.850;2023-01-29T01:22:55;81740.47;;;-7.20;56.76
64711;BME280;51139;45.626;6.850;2023-01-29T01:25:22;81739.84;;;-7.09;56.89
64711;BME280;51139;45.626;6.850;2023-01-29T01:27:51;81752.06;;;-7.04;56.63
64711;BME280;51139;45.626;6.850;2023-01-29T01:30:17;81739.09;;;-7.15;56.51
64711;BME280;51139;45.626;6.850;2023-01-29T01:32:43;81744.09;;;-7.06;57.05
64711;BME280;51139;45.626;6.850;2023-01-29T01:35:09;81751.13;;;-6.68;55.66
64711;BME280;51139;45.626;6.850;2023-01-29T01:37:35;81745.06;;;-7.03;56.16
64711;BME280;51139;45.626;6.850;2023-01-29T01:40:03;81748.25;;;-7.14;56.69
64711;BME280;51139;45.626;6.850;2023-01-29T01:42:30;81744.91;;;-6.94;55.96
64711;BME280;51139;45.626;6.850;2023-01-29T01:45:03;81749.41;;;-6.83;55.51
64711;BME280;51139;45.626;6.850;2023-01-29T01:47:32;81744.47;;;-6.86;56.34
64711;BME280;51139;45.626;6.850;2023-01-29T01:50:42;81753.03;;;-6.69;55.02
64711;BME280;51139;45.626;6.850;2023-01-29T01:53:12;81758.72;;;-6.91;55.44
64711;BME280;51139;45.626;6.850;2023-01-29T01:55:45;81753.03;;;-6.69;55.19
64711;BME280;51139;45.626;6.850;2023-01-29T01:58:17;81738.84;;;-6.53;54.52
64711;BME280;51139;45.626;6.850;2023-01-29T02:00:45;81751.13;;;-6.74;55.62
64711;BME280;51139;45.626;6.850;2023-01-29T02:03:11;81747.78;;;-6.80;55.81
64711;BME280;51139;45.626;6.850;2023-01-29T02:05:57;81752.72;;;-6.77;55.56
64711;BME280;51139;45.626;6.850;2023-01-29T02:08:51;81750.91;;;-6.33;54.52
64711;BME280;51139;45.626;6.850;2023-01-29T02:11:37;81751.72;;;-6.15;53.38
64711;BME280;51139;45.626;6.850;2023-01-29T02:14:03;81756.59;;;-6.61;54.75
64711;BME280;51139;45.626;6.850;2023-01-29T02:16:28;81758.88;;;-6.68;55.79
64711;BME280;51139;45.626;6.850;2023-01-29T02:18:53;81760.59;;;-6.92;56.57
64711;BME280;51139;45.626;6.850;2023-01-29T02:24:04;81769.69;;;-7.23;57.55
64711;BME280;51139;45.626;6.850;2023-01-29T02:27:07;81765.84;;;-6.80;56.78
64711;BME280;51139;45.626;6.850;2023-01-29T02:30:04;81768.50;;;-6.69;56.09
64711;BME280;51139;45.626;6.850;2023-01-29T02:35:49;81766.53;;;-6.80;56.70
64711;BME280;51139;45.626;6.850;2023-01-29T02:38:54;81771.19;;;-6.84;55.69
64711;BME280;51139;45.626;6.850;2023-01-29T02:44:35;81776.72;;;-7.23;57.99
64711;BME280;51139;45.626;6.850;2023-01-29T02:47:13;81776.66;;;-7.03;57.84
64711;BME280;51139;45.626;6.850;2023-01-29T02:50:56;81784.84;;;-7.30;58.53
64711;BME280;51139;45.626;6.850;2023-01-29T02:57:56;81787.69;;;-7.02;57.04
64711;BME280;51139;45.626;6.850;2023-01-29T03:00:26;81795.50;;;-6.91;56.27
64711;BME280;51139;45.626;6.850;2023-01-29T03:02:58;81796.81;;;-7.27;57.09
64711;BME280;51139;45.626;6.850;2023-01-29T03:08:45;81792.66;;;-7.19;57.14
64711;BME280;51139;45.626;6.850;2023-01-29T03:11:15;81799.47;;;-7.42;57.62
64711;BME280;51139;45.626;6.850;2023-01-29T03:16:33;81795.00;;;-7.21;56.84
64711;BME280;51139;45.626;6.850;2023-01-29T03:19:08;81809.53;;;-7.18;57.06
64711;BME280;51139;45.626;6.850;2023-01-29T03:21:40;81803.38;;;-7.00;56.31
64711;BME280;51139;45.626;6.850;2023-01-29T03:24:52;81807.75;;;-7.33;57.94
64711;BME280;51139;45.626;6.850;2023-01-29T03:27:58;81809.47;;;-7.24;58.51
64711;BME280;51139;45.626;6.850;2023-01-29T03:30:53;81808.22;;;-6.81;56.47
64711;BME280;51139;45.626;6.850;2023-01-29T03:33:45;81810.94;;;-6.91;56.01
64711;BME280;51139;45.626;6.850;2023-01-29T03:36:17;81813.75;;;-6.62;55.22
64711;BME280;51139;45.626;6.850;2023-01-29T03:38:45;81822.84;;;-6.93;56.33
64711;BME280;51139;45.626;6.850;2023-01-29T03:41:22;81824.09;;;-7.09;56.68
64711;BME280;51139;45.626;6.850;2023-01-29T03:43:55;81809.13;;;-6.84;56.03
64711;BME280;51139;45.626;6.850;2023-01-29T03:46:31;81822.66;;;-6.90;56.13
64711;BME280;51139;45.626;6.850;2023-01-29T03:49:08;81828.31;;;-7.12;55.88
64711;BME280;51139;45.626;6.850;2023-01-29T03:54:24;81831.16;;;-6.83;56.75
64711;BME280;51139;45.626;6.850;2023-01-29T03:56:58;81836.19;;;-7.21;56.88
64711;BME280;51139;45.626;6.850;2023-01-29T03:59:39;81832.34;;;-7.31;57.21
64711;BME280;51139;45.626;6.850;2023-01-29T04:02:14;81841.81;;;-7.43;58.03
64711;BME280;51139;45.626;6.850;2023-01-29T04:04:45;81836.25;;;-7.36;58.06
64711;BME280;51139;45.626;6.850;2023-01-29T04:07:15;81840.66;;;-7.42;58.23
64711;BME280;51139;45.626;6.850;2023-01-29T04:09:48;81838.91;;;-7.51;58.97
64711;BME280;51139;45.626;6.850;2023-01-29T04:12:19;81838.53;;;-7.65;58.58
64711;BME280;51139;45.626;6.850;2023-01-29T04:14:46;81843.25;;;-7.16;57.53
64711;BME280;51139;45.626;6.850;2023-01-29T04:17:26;81845.47;;;-7.29;57.86
64711;BME280;51139;45.626;6.850;2023-01-29T04:19:58;81843.66;;;-7.65;58.97
64711;BME280;51139;45.626;6.850;2023-01-29T04:22:31;81841.56;;;-7.66;60.03
64711;BME280;51139;45.626;6.850;2023-01-29T04:24:58;81842.38;;;-7.54;59.12
64711;BME280;51139;45.626;6.850;2023-01-29T04:27:44;81837.31;;;-7.49;59.16
64711;BME280;51139;45.626;6.850;2023-01-29T04:35:47;81850.69;;;-7.65;60.13
64711;BME280;51139;45.626;6.850;2023-01-29T04:41:21;81837.75;;;-7.29;58.88
64711;BME280;51139;45.626;6.850;2023-01-29T04:49:39;81846.25;;;-7.65;58.68
64711;BME280;51139;45.626;6.850;2023-01-29T04:57:51;81848.69;;;-7.55;59.29
64711;BME280;51139;45.626;6.850;2023-01-29T05:00:25;81849.47;;;-7.70;60.17
64711;BME280;51139;45.626;6.850;2023-01-29T05:02:53;81848.31;;;-7.89;60.75
64711;BME280;51139;45.626;6.850;2023-01-29T05:05:19;81849.06;;;-7.83;60.87
64711;BME280;51139;45.626;6.850;2023-01-29T05:07:45;81850.81;;;-7.54;60.19
64711;BME280;51139;45.626;6.850;2023-01-29T05:10:13;81851.91;;;-7.60;58.75
64711;BME280;51139;45.626;6.850;2023-01-29T05:12:42;81851.38;;;-7.65;59.45
64711;BME280;51139;45.626;6.850;2023-01-29T05:15:13;81849.72;;;-7.68;59.21
64711;BME280;51139;45.626;6.850;2023-01-29T05:17:41;81851.72;;;-7.78;59.36
64711;BME280;51139;45.626;6.850;2023-01-29T05:20:07;81854.47;;;-7.60;59.16
64711;BME280;51139;45.626;6.850;2023-01-29T05:22:36;81856.03;;;-7.48;58.26
64711;BME280;51139;45.626;6.850;2023-01-29T05:25:02;81860.00;;;-7.68;59.47
64711;BME280;51139;45.626;6.850;2023-01-29T05:27:33;81857.88;;;-7.90;59.68
64711;BME280;51139;45.626;6.850;2023-01-29T05:30:17;81860.97;;;-7.86;59.88
64711;BME280;51139;45.626;6.850;2023-01-29T05:32:43;81864.09;;;-7.97;60.15
64711;BME280;51139;45.626;6.850;2023-01-29T05:35:08;81867.38;;;-7.96;60.17
64711;BME280;51139;45.626;6.850;2023-01-29T05:37:34;81870.16;;;-8.00;60.25
64711;BME280;51139;45.626;6.850;2023-01-29T05:39:59;81862.31;;;-7.70;58.82
64711;BME280;51139;45.626;6.850;2023-01-29T05:42:24;81867.97;;;-7.66;58.28
64711;BME280;51139;45.626;6.850;2023-01-29T05:44:50;81867.94;;;-7.71;58.48
64711;BME280;51139;45.626;6.850;2023-01-29T05:47:19;81869.53;;;-7.74;58.44
64711;BME280;51139;45.626;6.850;2023-01-29T05:49:44;81870.63;;;-7.81;58.69
64711;BME280;51139;45.626;6.850;2023-01-29T05:52:10;81873.13;;;-7.86;58.88
64711;BME280;51139;45.626;6.850;2023-01-29T05:54:35;81880.50;;;-7.94;59.34
64711;BME280;51139;45.626;6.850;2023-01-29T05:57:00;81878.09;;;-8.18;59.69
64711;BME280;51139;45.626;6.850;2023-01-29T05:59:26;81878.94;;;-8.07;59.66
64711;BME280;51139;45.626;6.850;2023-01-29T06:01:51;81880.94;;;-7.96;59.10
64711;BME280;51139;45.626;6.850;2023-01-29T06:04:16;81885.16;;;-8.13;59.43
64711;BME280;51139;45.626;6.850;2023-01-29T06:06:42;81885.56;;;-8.00;58.60
64711;BME280;51139;45.626;6.850;2023-01-29T06:09:09;81887.22;;;-7.82;57.49
64711;BME280;51139;45.626;6.850;2023-01-29T06:11:34;81886.72;;;-7.65;57.32
64711;BME280;51139;45.626;6.850;2023-01-29T06:14:00;81889.16;;;-7.77;57.07
64711;BME280;51139;45.626;6.850;2023-01-29T06:16:25;81891.91;;;-7.80;57.81
64711;BME280;51139;45.626;6.850;2023-01-29T06:18:51;81897.31;;;-7.57;56.80
64711;BME280;51139;45.626;6.850;2023-01-29T06:21:16;81895.53;;;-7.30;56.04
64711;BME280;51139;45.626;6.850;2023-01-29T06:23:41;81897.84;;;-7.53;56.89
64711;BME280;51139;45.626;6.850;2023-01-29T06:26:10;81896.66;;;-7.73;57.63
64711;BME280;51139;45.626;6.850;2023-01-29T06:28:36;81906.94;;;-7.73;58.18
64711;BME280;51139;45.626;6.850;2023-01-29T06:31:02;81910.38;;;-7.82;57.90
64711;BME280;51139;45.626;6.850;2023-01-29T06:33:29;81899.69;;;-7.74;57.86
64711;BME280;51139;45.626;6.850;2023-01-29T06:35:58;81900.66;;;-7.72;57.54
64711;BME280;51139;45.626;6.850;2023-01-29T06:38:25;81910.81;;;-7.63;57.50
64711;BME280;51139;45.626;6.850;2023-01-29T06:40:51;81909.22;;;-7.81;58.29
64711;BME280;51139;45.626;6.850;2023-01-29T06:43:17;81919.63;;;-7.90;58.24
64711;BME280;51139;45.626;6.850;2023-01-29T06:45:54;81917.50;;;-7.71;58.04
64711;BME280;51139;45.626;6.850;2023-01-29T06:48:20;81926.81;;;-7.38;57.84
64711;BME280;51139;45.626;6.850;2023-01-29T06:50:46;81934.06;;;-7.15;56.87
64711;BME280;51139;45.626;6.850;2023-01-29T06:53:14;81920.00;;;-7.41;57.57
64711;BME280;51139;45.626;6.850;2023-01-29T06:55:39;81934.19;;;-7.66;58.23
64711;BME280;51139;45.626;6.850;2023-01-29T06:58:09;81925.31;;;-7.65;58.08
64711;BME280;51139;45.626;6.850;2023-01-29T07:00:35;81931.69;;;-7.40;57.76
64711;BME280;51139;45.626;6.850;2023-01-29T07:03:02;81931.53;;;-7.51;57.64
64711;BME280;51139;45.626;6.850;2023-01-29T07:05:27;81937.22;;;-7.26;57.52
64711;BME280;51139;45.626;6.850;2023-01-29T07:07:53;81948.31;;;-7.20;57.43
64711;BME280;51139;45.626;6.850;2023-01-29T07:10:18;81941.53;;;-7.38;57.21
64711;BME280;51139;45.626;6.850;2023-01-29T07:12:44;81942.03;;;-7.55;57.59
64711;BME280;51139;45.626;6.850;2023-01-29T07:15:09;81943.00;;;-7.52;57.90
64711;BME280;51139;45.626;6.850;2023-01-29T07:17:37;81950.34;;;-7.45;57.58
64711;BME280;51139;45.626;6.850;2023-01-29T07:20:03;81945.31;;;-7.54;57.58
64711;BME280;51139;45.626;6.850;2023-01-29T07:22:30;81944.31;;;-7.21;56.14
64711;BME280;51139;45.626;6.850;2023-01-29T07:24:55;81951.97;;;-7.27;56.97
64711;BME280;51139;45.626;6.850;2023-01-29T07:27:20;81952.03;;;-7.42;57.08
64711;BME280;51139;45.626;6.850;2023-01-29T07:29:46;81956.47;;;-7.22;57.26
64711;BME280;51139;45.626;6.850;2023-01-29T07:32:11;81950.88;;;-7.20;56.89
64711;BME280;51139;45.626;6.850;2023-01-29T07:34:36;81957.88;;;-7.21;56.46
64711;BME280;51139;45.626;6.850;2023-01-29T07:37:02;81953.38;;;-7.26;56.50
64711;BME280;51139;45.626;6.850;2023-01-29T07:39:27;81961.19;;;-7.20;56.69
64711;BME280;51139;45.626;6.850;2023-01-29T07:41:52;81963.88;;;-7.29;56.97
64711;BME280;51139;45.626;6.850;2023-01-29T07:44:18;81973.84;;;-7.16;56.45
64711;BME280;51139;45.626;6.850;2023-01-29T07:46:43;81972.84;;;-7.04;55.96
64711;BME280;51139;45.626;6.850;2023-01-29T07:49:08;81972.38;;;-6.82;56.00
64711;BME280;51139;45.626;6.850;2023-01-29T07:51:34;81986.56;;;-6.45;55.26
64711;BME280;51139;45.626;6.850;2023-01-29T07:53:59;81981.13;;;-6.26;55.32
64711;BME280;51139;45.626;6.850;2023-01-29T07:56:25;81985.88;;;-5.87;54.80
64711;BME280;51139;45.626;6.850;2023-01-29T07:58:50;81994.47;;;-5.69;54.79
64711;BME280;51139;45.626;6.850;2023-01-29T08:01:15;82001.03;;;-5.36;54.40
64711;BME280;51139;45.626;6.850;2023-01-29T08:03:41;82000.69;;;-5.18;53.47
64711;BME280;51139;45.626;6.850;2023-01-29T08:06:06;82014.53;;;-4.77;52.71
64711;BME280;51139;45.626;6.850;2023-01-29T08:08:31;82003.47;;;-4.12;50.99
64711;BME280;51139;45.626;6.850;2023-01-29T08:11:00;82006.13;;;-3.89;49.80
64711;BME280;51139;45.626;6.850;2023-01-29T08:13:26;82012.28;;;-3.75;49.62
64711;BME280;51139;45.626;6.850;2023-01-29T08:15:51;82021.19;;;-3.87;50.34
64711;BME280;51139;45.626;6.850;2023-01-29T08:18:16;82017.44;;;-3.86;49.55
64711;BME280;51139;45.626;6.850;2023-01-29T08:20:42;82021.50;;;-3.34;49.82
64711;BME280;51139;45.626;6.850;2023-01-29T08:23:12;82028.56;;;-3.29;50.86
64711;BME280;51139;45.626;6.850;2023-01-29T08:25:38;82028.06;;;-2.82;48.13
64711;BME280;51139;45.626;6.850;2023-01-29T08:28:03;82033.25;;;-2.59;47.67
64711;BME280;51139;45.626;6.850;2023-01-29T08:30:31;82027.81;;;-2.67;47.65
64711;BME280;51139;45.626;6.850;2023-01-29T08:32:56;82030.34;;;-2.32;47.52
64711;BME280;51139;45.626;6.850;2023-01-29T08:35:24;82033.78;;;-2.01;47.09
64711;BME280;51139;45.626;6.850;2023-01-29T08:37:57;82029.25;;;-0.69;44.75
64711;BME280;51139;45.626;6.850;2023-01-29T08:40:27;82037.81;;;0.50;40.22
64711;BME280;51139;45.626;6.850;2023-01-29T08:42:57;82039.41;;;1.10;40.01
64711;BME280;51139;45.626;6.850;2023-01-29T08:45:22;82038.97;;;1.58;40.04
64711;BME280;51139;45.626;6.850;2023-01-29T08:47:48;82042.78;;;2.03;36.44
64711;BME280;51139;45.626;6.850;2023-01-29T08:50:15;82036.56;;;3.08;35.35
64711;BME280;51139;45.626;6.850;2023-01-29T08:52:41;82045.03;;;1.14;38.12
64711;BME280;51139;45.626;6.850;2023-01-29T08:55:07;82047.41;;;1.51;38.55
64711;BME280;51139;45.626;6.850;2023-01-29T08:57:33;82049.59;;;0.32;38.78
64711;BME280;51139;45.626;6.850;2023-01-29T08:59:58;82044.63;;;1.75;36.89
64711;BME280;51139;45.626;6.850;2023-01-29T09:02:24;82040.22;;;3.40;35.69
64711;BME280;51139;45.626;6.850;2023-01-29T09:04:49;82047.53;;;2.58;33.57
64711;BME280;51139;45.626;6.850;2023-01-29T09:07:15;82043.47;;;2.03;34.65
64711;BME280;51139;45.626;6.850;2023-01-29T09:09:40;82045.72;;;1.67;35.38
64711;BME280;51139;45.626;6.850;2023-01-29T09:12:05;82047.03;;;-0.18;37.34
64711;BME280;51139;45.626;6.850;2023-01-29T09:14:31;82046.28;;;-0.38;39.62
64711;BME280;51139;45.626;6.850;2023-01-29T09:16:57;82042.13;;;0.85;37.30
64711;BME280;51139;45.626;6.850;2023-01-29T09:19:22;82048.09;;;2.11;35.74
64711;BME280;51139;45.626;6.850;2023-01-29T09:21:47;82040.38;;;2.45;35.17
64711;BME280;51139;45.626;6.850;2023-01-29T09:24:14;82043.97;;;2.96;35.34
64711;BME280;51139;45.626;6.850;2023-01-29T09:26:39;82040.19;;;2.16;34.39
64711;BME280;51139;45.626;6.850;2023-01-29T09:29:05;82047.44;;;1.12;35.32
64711;BME280;51139;45.626;6.850;2023-01-29T09:31:30;82043.38;;;-0.34;37.84
64711;BME280;51139;45.626;6.850;2023-01-29T09:33:56;82043.50;;;-0.76;38.41
64711;BME280;51139;45.626;6.850;2023-01-29T09:36:21;82043.28;;;-1.14;38.95
64711;BME280;51139;45.626;6.850;2023-01-29T09:38:46;82037.00;;;-0.94;38.11
64711;BME280;51139;45.626;6.850;2023-01-29T09:44:01;82053.84;;;-1.01;39.07
64711;BME280;51139;45.626;6.850;2023-01-29T09:49:03;82051.91;;;-0.34;38.16
64711;BME280;51139;45.626;6.850;2023-01-29T09:51:36;82051.44;;;0.18;35.99
64711;BME280;51139;45.626;6.850;2023-01-29T09:56:50;82045.38;;;-0.46;36.62
64711;BME280;51139;45.626;6.850;2023-01-29T09:59:20;82048.44;;;-0.42;36.45
64711;BME280;51139;45.626;6.850;2023-01-29T10:01:54;82050.81;;;0.31;34.57
64711;BME280;51139;45.626;6.850;2023-01-29T10:07:40;82039.47;;;5.55;27.84
64711;BME280;51139;45.626;6.850;2023-01-29T10:13:14;82047.63;;;2.66;29.89
64711;BME280;51139;45.626;6.850;2023-01-29T10:18:46;82045.53;;;3.47;30.42
64711;BME280;51139;45.626;6.850;2023-01-29T10:21:18;82044.47;;;2.81;33.35
64711;BME280;51139;45.626;6.850;2023-01-29T10:26:36;82035.34;;;2.61;34.84
64711;BME280;51139;45.626;6.850;2023-01-29T10:29:06;82047.81;;;2.41;34.50
64711;BME280;51139;45.626;6.850;2023-01-29T10:31:34;82035.19;;;2.94;33.38
64711;BME280;51139;45.626;6.850;2023-01-29T10:34:15;82036.25;;;2.63;38.60
64711;BME280;51139;45.626;6.850;2023-01-29T10:36:48;82037.16;;;2.39;36.57
64711;BME280;51139;45.626;6.850;2023-01-29T10:39:19;82041.53;;;2.98;38.04
64711;BME280;51139;45.626;6.850;2023-01-29T10:44:31;82041.84;;;1.87;36.64
64711;BME280;51139;45.626;6.850;2023-01-29T10:50:16;82026.00;;;2.52;36.99
64711;BME280;51139;45.626;6.850;2023-01-29T10:53:00;82026.72;;;2.66;36.95
64711;BME280;51139;45.626;6.850;2023-01-29T10:55:54;82020.88;;;2.46;38.36
64711;BME280;51139;45.626;6.850;2023-01-29T10:58:43;82020.06;;;2.25;42.15
64711;BME280;51139;45.626;6.850;2023-01-29T11:01:13;82011.72;;;2.13;40.03
64711;BME280;51139;45.626;6.850;2023-01-29T11:03:38;82014.94;;;2.59;41.27
64711;BME280;51139;45.626;6.850;2023-01-29T11:06:15;82011.22;;;2.41;37.78
64711;BME280;51139;45.626;6.850;2023-01-29T11:11:15;82007.81;;;2.33;35.89
64711;BME280;51139;45.626;6.850;2023-01-29T11:14:02;82009.91;;;2.48;38.47
64711;BME280;51139;45.626;6.850;2023-01-29T11:16:39;81996.31;;;1.69;41.35
64711;BME280;51139;45.626;6.850;2023-01-29T11:19:05;82006.66;;;1.74;41.07
64711;BME280;51139;45.626;6.850;2023-01-29T11:21:30;81995.91;;;2.72;38.35
64711;BME280;51139;45.626;6.850;2023-01-29T11:24:10;81996.97;;;2.15;34.82
64711;BME280;51139;45.626;6.850;2023-01-29T11:26:38;81991.81;;;1.96;39.32
64711;BME280;51139;45.626;6.850;2023-01-29T11:29:04;81991.00;;;1.88;38.63
64711;BME280;51139;45.626;6.850;2023-01-29T11:31:49;81986.50;;;2.15;37.78
64711;BME280;51139;45.626;6.850;2023-01-29T11:34:21;81987.16;;;2.70;37.18
64711;BME280;51139;45.626;6.850;2023-01-29T11:37:01;81987.81;;;2.36;40.54
64711;BME280;51139;45.626;6.850;2023-01-29T11:39:28;81992.19;;;1.73;41.79
64711;BME280;51139;45.626;6.850;2023-01-29T11:42:03;81998.97;;;1.96;41.77
64711;BME280;51139;45.626;6.850;2023-01-29T11:47:14;81992.81;;;1.93;41.67
64711;BME280;51139;45.626;6.850;2023-01-29T11:49:59;81993.13;;;1.89;42.27
64711;BME280;51139;45.626;6.850;2023-01-29T11:52:39;81986.59;;;1.96;41.30
64711;BME280;51139;45.626;6.850;2023-01-29T11:57:49;81988.09;;;1.78;42.94
64711;BME280;51139;45.626;6.850;2023-01-29T12:02:51;81997.06;;;1.37;43.36
64711;BME280;51139;45.626;6.850;2023-01-29T12:05:22;81997.69;;;1.56;41.21
64711;BME280;51139;45.626;6.850;2023-01-29T12:07:52;81997.28;;;1.20;40.90
64711;BME280;51139;45.626;6.850;2023-01-29T12:10:37;81998.09;;;1.14;43.37
64711;BME280;51139;45.626;6.850;2023-01-29T12:15:39;82004.81;;;1.42;43.17
64711;BME280;51139;45.626;6.850;2023-01-29T12:20:53;82005.69;;;1.45;40.61
64711;BME280;51139;45.626;6.850;2023-01-29T12:26:35;82013.97;;;0.21;45.29
64711;BME280;51139;45.626;6.850;2023-01-29T12:29:11;82017.00;;;1.01;45.53
64711;BME280;51139;45.626;6.850;2023-01-29T12:34:52;82021.13;;;1.62;42.63
64711;BME280;51139;45.626;6.850;2023-01-29T12:37:31;82020.09;;;1.00;46.52
64711;BME280;51139;45.626;6.850;2023-01-29T12:40:00;82015.38;;;1.31;47.36
64711;BME280;51139;45.626;6.850;2023-01-29T12:42:26;82010.88;;;1.78;45.85
64711;BME280;51139;45.626;6.850;2023-01-29T12:47:25;82023.63;;;1.02;48.46
64711;BME280;51139;45.626;6.850;2023-01-29T12:49:55;82016.44;;;1.09;46.84
64711;BME280;51139;45.626;6.850;2023-01-29T12:52:46;82026.63;;;0.93;49.99
64711;BME280;51139;45.626;6.850;2023-01-29T12:55:32;82019.03;;;1.09;50.00
64711;BME280;51139;45.626;6.850;2023-01-29T12:58:02;82018.06;;;0.73;49.89
64711;BME280;51139;45.626;6.850;2023-01-29T13:00:32;82016.25;;;0.68;50.46
64711;BME280;51139;45.626;6.850;2023-01-29T13:08:16;82023.13;;;1.04;46.87
64711;BME280;51139;45.626;6.850;2023-01-29T13:10:47;82010.75;;;-0.35;48.75
64711;BME280;51139;45.626;6.850;2023-01-29T13:15:42;82021.81;;;0.78;49.77
64711;BME280;51139;45.626;6.850;2023-01-29T13:20:55;82020.75;;;0.87;51.56
64711;BME280;51139;45.626;6.850;2023-01-29T13:23:35;82026.34;;;0.58;50.98
64711;BME280;51139;45.626;6.850;2023-01-29T13:26:02;82018.44;;;0.45;51.59
64711;BME280;51139;45.626;6.850;2023-01-29T13:28:28;82017.53;;;0.62;51.81
64711;BME280;51139;45.626;6.850;2023-01-29T13:31:13;82023.66;;;0.64;52.18
64711;BME280;51139;45.626;6.850;2023-01-29T13:33:43;82024.41;;;0.59;51.63
64711;BME280;51139;45.626;6.850;2023-01-29T13:36:23;82024.63;;;0.42;51.28
64711;BME280;51139;45.626;6.850;2023-01-29T13:39:32;82034.81;;;0.40;51.68
64711;BME280;51139;45.626;6.850;2023-01-29T13:42:00;82038.31;;;0.04;54.20
64711;BME280;51139;45.626;6.850;2023-01-29T13:44:37;82035.59;;;0.35;50.97
64711;BME280;51139;45.626;6.850;2023-01-29T13:47:06;82034.09;;;0.20;51.03
64711;BME280;51139;45.626;6.850;2023-01-29T13:49:42;82043.16;;;0.96;50.26
64711;BME280;51139;45.626;6.850;2023-01-29T13:52:18;82047.22;;;0.34;50.96
64711;BME280;51139;45.626;6.850;2023-01-29T13:54:58;82032.47;;;0.17;52.74
64711;BME280;51139;45.626;6.850;2023-01-29T14:10:21;82036.38;;;0.29;50.52
64711;BME280;51139;45.626;6.850;2023-01-29T14:23:39;82026.69;;;0.05;53.66
64711;BME280;51139;45.626;6.850;2023-01-29T14:29:06;82030.16;;;0.33;51.94
64711;BME280;51139;45.626;6.850;2023-01-29T14:31:59;82029.81;;;0.42;52.28
64711;BME280;51139;45.626;6.850;2023-01-29T14:34:32;82027.25;;;0.61;51.02
64711;BME280;51139;45.626;6.850;2023-01-29T14:37:19;82023.41;;;0.43;49.75
64711;BME280;51139;45.626;6.850;2023-01-29T14:39:47;82020.13;;;0.42;50.81
64711;BME280;51139;45.626;6.850;2023-01-29T14:47:19;82030.69;;;0.31;50.59
64711;BME280;51139;45.626;6.850;2023-01-29T14:52:50;82026.91;;;0.07;52.47
64711;BME280;51139;45.626;6.850;2023-01-29T14:55:39;82035.13;;;0.55;47.43
64711;BME280;51139;45.626;6.850;2023-01-29T14:58:15;82030.53;;;0.42;45.27
64711;BME280;51139;45.626;6.850;2023-01-29T15:00:44;82027.44;;;-0.50;45.85
64711;BME280;51139;45.626;6.850;2023-01-29T15:03:28;82030.75;;;0.01;46.92
64711;BME280;51139;45.626;6.850;2023-01-29T15:05:58;82038.38;;;0.62;48.72
64711;BME280;51139;45.626;6.850;2023-01-29T15:08:48;82038.94;;;0.54;50.27
64711;BME280;51139;45.626;6.850;2023-01-29T15:11:49;82046.22;;;0.18;50.96
64711;BME280;51139;45.626;6.850;2023-01-29T15:14:38;82047.38;;;-0.03;51.80
64711;BME280;51139;45.626;6.850;2023-01-29T15:24:27;82054.25;;;0.64;48.74
64711;BME280;51139;45.626;6.850;2023-01-29T15:26:53;82058.22;;;0.46;50.77
64711;BME280;51139;45.626;6.850;2023-01-29T15:29:23;82049.00;;;0.01;50.54
64711;BME280;51139;45.626;6.850;2023-01-29T15:31:50;82052.97;;;0.26;52.41
64711;BME280;51139;45.626;6.850;2023-01-29T15:34:16;82042.53;;;0.51;50.97
64711;BME280;51139;45.626;6.850;2023-01-29T15:36:41;82048.66;;;0.73;48.67
64711;BME280;51139;45.626;6.850;2023-01-29T15:39:15;82048.88;;;0.94;45.90
64711;BME280;51139;45.626;6.850;2023-01-29T15:41:42;82045.00;;;0.63;48.14
64711;BME280;51139;45.626;6.850;2023-01-29T15:44:16;82046.19;;;0.62;49.95
64711;BME280;51139;45.626;6.850;2023-01-29T15:46:47;82038.13;;;-0.04;47.94
64711;BME280;51139;45.626;6.850;2023-01-29T15:49:22;82053.47;;;-0.50;49.63
64711;BME280;51139;45.626;6.850;2023-01-29T15:51:54;82045.84;;;-0.17;50.83